Jarvisburg, North Carolina
Current Conditions -  °F | °C
As of 2:55 PM on Sunday 23 Nov 2014 (Local Time) from KONX Reporting Station
Moderate Rain Moderate Rain  
Wind Chill: 61°   Ceiling: 3700
Heat Index: 61°   Visibility: 10mi
Dew Point: 53°   Wind: 0mph
Humidity: 76%   Direction: NA
Pressure: 30.14"   Gusts: NA
Location:  36.2°N, 75.87°W
Report Text: KONX 231955Z AUTO 00000KT 10SM RA SCT028 BKN037 OVC110 16/12 A3014 RMK AO2 T01590117
Loading
Personal Weather Stations






























Interactive Weather Map New forecast layout! Learn more

10-Day Weather Forecast

Advertisements
Track Severe Weather on mobile